Terminal Aerodrome Forecast
Issued by NWS Wilmington, OH

Current Version | Previous Version | Graphics & Text | Print | Product List | Glossary On
Versions: 1 2 3 4 5 6 7 8 9 10 11 12 13 14 15 16 17 18 19 20 21 22 23 24 25 26 27
520
FTUS41 KILN 240530
TAFCVG
TAF
KCVG 240530Z 2406/2512 00000KT P6SM BKN250
      TEMPO 2408/2412 5SM BR
     FM241400 23005KT P6SM SCT030 SCT250
     FM241800 26007KT P6SM SCT040
     FM250000 VRB03KT P6SM SCT045=

USA.gov is the U.S. government's official web portal to all federal, state and local government web resources and services.